Time;durP1;ratioP1;P1;durP2;ratioP2;P2;SDS_P1;SDS_P2;PMS_P1;PMS_P2;Temp;Humidity;BMP_temperature;BMP_pressure;BME280_temperature;BME280_humidity;BME280_pressure;Samples;Min_cycle;Max_cycle;Signal;HPM_P1;HPM_P2
2023/11/17 00:02:22;;;;;;;12.65;4.20;;;;;;;;;;5031305;28;21245;-70
2023/11/17 00:04:49;;;;;;;8.20;3.78;;;;;;;;;;5028807;28;20053;-70
2023/11/17 00:07:16;;;;;;;20.33;8.63;;;;;;;;;;5050844;28;20189;-69
2023/11/17 00:09:42;;;;;;;21.52;10.10;;;;;;;;;;5052674;28;20064;-69
2023/11/17 00:12:11;;;;;;;34.35;16.88;;;;;;;;;;5047340;28;20060;-69
2023/11/17 00:14:37;;;;;;;30.27;14.30;;;;;;;;;;5039461;28;20071;-69
2023/11/17 00:17:05;;;;;;;18.80;8.65;;;;;;;;;;5028037;28;20060;-68
2023/11/17 00:19:31;;;;;;;16.85;7.28;;;;;;;;;;5040150;28;20049;-69
2023/11/17 00:21:58;;;;;;;12.50;5.72;;;;;;;;;;5039561;28;20049;-69
2023/11/17 00:24:26;;;;;;;11.55;4.65;;;;;;;;;;5020137;28;20140;-69
2023/11/17 00:26:52;;;;;;;12.70;4.20;;;;;;;;;;5037264;28;20132;-69
2023/11/17 00:29:21;;;;;;;10.23;4.53;;;;;;;;;;5058169;28;20104;-69
2023/11/17 00:31:47;;;;;;;11.15;4.38;;;;;;;;;;5040885;28;20053;-69
2023/11/17 00:34:14;;;;;;;8.75;4.28;;;;;;;;;;5033671;28;20049;-69
2023/11/17 00:36:43;;;;;;;8.27;4.05;;;;;;;;;;5029549;28;20061;-69
2023/11/17 00:39:10;;;;;;;9.40;3.97;;;;;;;;;;5036715;28;20052;-70
2023/11/17 00:41:37;;;;;;;7.78;4.03;;;;;;;;;;5038182;28;20185;-69
2023/11/17 00:44:04;;;;;;;10.25;4.13;;;;;;;;;;5034984;28;20087;-69
2023/11/17 00:46:32;;;;;;;9.00;4.35;;;;;;;;;;5018086;28;20171;-69
2023/11/17 00:48:59;;;;;;;11.00;4.47;;;;;;;;;;5038889;28;20092;-70
2023/11/17 00:51:27;;;;;;;10.57;4.65;;;;;;;;;;5039745;28;20064;-68
2023/11/17 00:54:00;;;;;;;10.00;4.35;;;;;;;;;;5022580;28;20399;-69
2023/11/17 00:56:26;;;;;;;10.10;4.25;;;;;;;;;;5028400;28;21000;-69
2023/11/17 00:58:53;;;;;;;9.13;4.20;;;;;;;;;;5037973;28;20087;-69
2023/11/17 01:01:20;;;;;;;12.13;4.78;;;;;;;;;;5039276;28;20080;-69
2023/11/17 01:03:49;;;;;;;10.57;4.63;;;;;;;;;;5008784;28;20119;-69
2023/11/17 01:06:15;;;;;;;9.70;3.95;;;;;;;;;;4989607;28;20086;-69
2023/11/17 01:08:42;;;;;;;10.32;4.35;;;;;;;;;;5022826;28;20053;-69
2023/11/17 01:11:11;;;;;;;9.70;3.63;;;;;;;;;;5037867;28;20081;-68
2023/11/17 01:13:38;;;;;;;16.98;4.72;;;;;;;;;;5009797;28;20061;-68
2023/11/17 01:16:06;;;;;;;9.73;4.30;;;;;;;;;;4994926;28;20057;-69
2023/11/17 01:18:32;;;;;;;9.57;4.38;;;;;;;;;;5019617;28;20071;-69
2023/11/17 01:21:00;;;;;;;10.35;4.25;;;;;;;;;;5021593;28;20269;-68
2023/11/17 01:23:28;;;;;;;12.25;5.20;;;;;;;;;;5011692;28;20057;-68
2023/11/17 01:25:55;;;;;;;10.73;4.25;;;;;;;;;;5014410;28;20064;-69
2023/11/17 01:28:22;;;;;;;8.25;3.95;;;;;;;;;;4996911;28;20056;-69
2023/11/17 01:30:48;;;;;;;10.02;4.32;;;;;;;;;;5023723;28;20108;-69
2023/11/17 01:33:15;;;;;;;13.75;4.70;;;;;;;;;;5013602;28;20092;-70
2023/11/17 01:35:43;;;;;;;16.63;6.50;;;;;;;;;;5012508;28;20049;-70
2023/11/17 01:38:12;;;;;;;21.55;9.25;;;;;;;;;;5006839;28;20155;-68
2023/11/17 01:40:39;;;;;;;20.50;8.88;;;;;;;;;;5003970;28;20049;-69
2023/11/17 01:43:06;;;;;;;28.55;11.43;;;;;;;;;;5005739;28;20094;-69
2023/11/17 01:45:33;;;;;;;17.35;7.15;;;;;;;;;;5018302;28;20148;-69
2023/11/17 01:48:01;;;;;;;10.80;4.53;;;;;;;;;;5014658;28;20049;-69
2023/11/17 01:50:28;;;;;;;9.27;4.15;;;;;;;;;;5000477;28;20057;-69
2023/11/17 01:52:55;;;;;;;8.95;3.80;;;;;;;;;;5005399;28;20045;-68
2023/11/17 01:55:24;;;;;;;10.40;4.20;;;;;;;;;;5003681;28;20118;-68
2023/11/17 01:57:51;;;;;;;11.60;4.13;;;;;;;;;;5002150;28;20061;-69
2023/11/17 02:00:19;;;;;;;8.98;4.25;;;;;;;;;;4995514;28;20053;-69
2023/11/17 02:02:49;;;;;;;8.95;4.25;;;;;;;;;;5012710;28;20061;-70
2023/11/17 02:05:20;;;;;;;7.97;3.92;;;;;;;;;;5009889;28;20129;-69
2023/11/17 02:08:01;;;;;;;8.52;4.10;;;;;;;;;;5035274;28;20136;-67
2023/11/17 02:10:37;;;;;;;8.10;4.10;;;;;;;;;;5033831;28;20196;-69
2023/11/17 02:13:12;;;;;;;9.98;3.90;;;;;;;;;;5032923;28;20060;-69
2023/11/17 02:15:40;;;;;;;8.07;4.07;;;;;;;;;;5008851;28;20145;-68
2023/11/17 02:18:10;;;;;;;9.40;4.57;;;;;;;;;;5007029;28;20053;-70
2023/11/17 02:20:38;;;;;;;8.77;4.07;;;;;;;;;;4997371;28;20057;-68
2023/11/17 02:23:10;;;;;;;8.27;4.18;;;;;;;;;;4999083;28;20061;-69
2023/11/17 02:25:55;;;;;;;7.97;3.58;;;;;;;;;;5023949;28;20146;-69
2023/11/17 02:28:30;;;;;;;9.43;4.35;;;;;;;;;;5030276;28;20279;-69
2023/11/17 02:31:12;;;;;;;8.32;4.28;;;;;;;;;;5034844;28;20077;-72
2023/11/17 02:33:41;;;;;;;7.07;3.40;;;;;;;;;;5021250;28;20119;-69
2023/11/17 02:36:16;;;;;;;6.95;3.53;;;;;;;;;;5007114;28;20057;-70
2023/11/17 02:38:57;;;;;;;12.02;4.55;;;;;;;;;;5024532;28;20072;-71
2023/11/17 02:41:32;;;;;;;9.15;3.75;;;;;;;;;;5038736;28;20547;-71
2023/11/17 02:44:02;;;;;;;9.75;4.13;;;;;;;;;;5023120;28;20110;-71
2023/11/17 02:46:32;;;;;;;9.38;4.13;;;;;;;;;;5024645;28;20194;-71
2023/11/17 02:49:00;;;;;;;8.77;4.05;;;;;;;;;;5037544;28;20091;-71
2023/11/17 02:51:32;;;;;;;8.20;4.22;;;;;;;;;;5039067;28;20048;-71
2023/11/17 02:54:08;;;;;;;8.23;4.38;;;;;;;;;;5031747;28;20060;-69
2023/11/17 02:56:38;;;;;;;9.50;4.30;;;;;;;;;;5015843;28;20064;-69
2023/11/17 02:59:08;;;;;;;8.65;3.85;;;;;;;;;;5015586;28;20097;-69
2023/11/17 03:01:38;;;;;;;8.43;3.92;;;;;;;;;;5030885;28;20053;-69
2023/11/17 03:04:13;;;;;;;8.00;3.95;;;;;;;;;;5003648;28;20057;-70
2023/11/17 03:06:45;;;;;;;7.38;3.50;;;;;;;;;;5018772;28;20065;-69
2023/11/17 03:09:14;;;;;;;7.70;3.70;;;;;;;;;;5016564;28;20065;-67
2023/11/17 03:11:41;;;;;;;10.25;4.18;;;;;;;;;;5018286;28;20049;-69
2023/11/17 03:14:08;;;;;;;7.68;4.15;;;;;;;;;;5015156;28;20076;-70
2023/11/17 03:16:37;;;;;;;10.10;4.22;;;;;;;;;;5040875;28;20106;-69
2023/11/17 03:19:10;;;;;;;8.70;4.05;;;;;;;;;;5038916;28;20562;-68
2023/11/17 03:21:40;;;;;;;10.57;4.57;;;;;;;;;;5035936;28;20056;-69
2023/11/17 03:24:14;;;;;;;9.57;4.10;;;;;;;;;;5033477;28;20162;-70
2023/11/17 03:26:43;;;;;;;8.43;4.03;;;;;;;;;;5018086;28;20084;-68
2023/11/17 03:29:14;;;;;;;10.57;3.80;;;;;;;;;;5028327;28;20164;-69
2023/11/17 03:31:48;;;;;;;9.35;3.90;;;;;;;;;;5021969;28;20065;-69
2023/11/17 03:34:16;;;;;;;10.45;4.22;;;;;;;;;;5000928;28;20057;-69
2023/11/17 03:36:42;;;;;;;11.50;3.38;;;;;;;;;;5015548;28;20049;-69
2023/11/17 03:39:12;;;;;;;9.18;3.90;;;;;;;;;;5015008;28;20153;-69
2023/11/17 03:41:40;;;;;;;7.88;3.65;;;;;;;;;;5019929;28;20053;-68
2023/11/17 03:44:07;;;;;;;9.13;4.03;;;;;;;;;;5013430;28;20053;-70
2023/11/17 03:46:35;;;;;;;7.40;3.55;;;;;;;;;;5036017;28;20138;-69
2023/11/17 03:49:04;;;;;;;9.20;3.93;;;;;;;;;;5038826;28;20143;-69
2023/11/17 03:51:30;;;;;;;;;;;;;;;;;;5040616;28;20049;-68
2023/11/17 03:53:57;;;;;;;5.90;3.08;;;;;;;;;;5029378;28;19935;-68
2023/11/17 03:56:24;;;;;;;7.38;3.33;;;;;;;;;;5031395;28;20553;-69
2023/11/17 03:58:51;;;;;;;10.85;3.65;;;;;;;;;;5005848;28;20294;-69
2023/11/17 04:01:18;;;;;;;8.43;4.00;;;;;;;;;;5022094;28;20057;-69
2023/11/17 04:03:46;;;;;;;7.75;3.65;;;;;;;;;;5031509;28;20057;-68
2023/11/17 04:06:14;;;;;;;8.77;4.22;;;;;;;;;;5011878;28;20053;-71
2023/11/17 04:08:41;;;;;;;6.90;3.53;;;;;;;;;;5020843;28;20053;-69
2023/11/17 04:11:13;;;;;;;8.25;3.75;;;;;;;;;;5021261;28;20055;-68
2023/11/17 04:13:41;;;;;;;10.77;4.32;;;;;;;;;;5014301;28;20053;-68
2023/11/17 04:16:10;;;;;;;8.15;4.20;;;;;;;;;;5017196;28;20057;-69
2023/11/17 04:18:38;;;;;;;9.27;4.00;;;;;;;;;;5021355;28;20057;-69
2023/11/17 04:21:06;;;;;;;;;;;;;;;;;;5023403;28;20053;-69
2023/11/17 04:23:34;;;;;;;10.45;3.65;;;;;;;;;;5021251;28;19943;-69
2023/11/17 04:26:01;;;;;;;11.35;4.00;;;;;;;;;;5017356;28;20065;-69
2023/11/17 04:28:28;;;;;;;8.85;3.80;;;;;;;;;;5017616;28;20092;-68
2023/11/17 04:30:55;;;;;;;10.63;4.30;;;;;;;;;;5018985;28;20053;-69
2023/11/17 04:33:22;;;;;;;9.57;4.18;;;;;;;;;;5020433;28;20042;-69
2023/11/17 04:35:49;;;;;;;10.65;4.50;;;;;;;;;;5051748;28;20053;-69
2023/11/17 04:38:16;;;;;;;9.18;4.22;;;;;;;;;;5032868;28;20201;-69
2023/11/17 04:40:44;;;;;;;9.27;3.53;;;;;;;;;;5039671;28;20048;-69
2023/11/17 04:43:11;;;;;;;8.20;3.83;;;;;;;;;;5039002;28;20107;-69
2023/11/17 04:45:42;;;;;;;10.38;4.05;;;;;;;;;;5035028;28;20125;-69
2023/11/17 04:48:11;;;;;;;7.47;4.05;;;;;;;;;;5030408;28;20053;-70
2023/11/17 04:50:38;;;;;;;9.77;3.67;;;;;;;;;;5039576;28;20056;-69
2023/11/17 04:53:05;;;;;;;10.90;4.57;;;;;;;;;;5030025;28;20144;-69
2023/11/17 04:55:31;;;;;;;8.90;4.10;;;;;;;;;;5022445;28;20207;-69
2023/11/17 04:58:00;;;;;;;8.25;4.15;;;;;;;;;;5036399;28;20053;-69
2023/11/17 05:00:27;;;;;;;8.38;3.65;;;;;;;;;;5035555;28;20136;-70
2023/11/17 05:02:54;;;;;;;7.25;3.65;;;;;;;;;;5040779;28;20049;-68
2023/11/17 05:05:21;;;;;;;8.35;4.05;;;;;;;;;;5049469;28;20059;-68
2023/11/17 05:07:48;;;;;;;8.27;4.10;;;;;;;;;;5037586;28;20063;-68
2023/11/17 05:10:19;;;;;;;10.48;4.25;;;;;;;;;;5035870;28;20274;-69
2023/11/17 05:12:48;;;;;;;8.23;3.78;;;;;;;;;;5040403;28;20049;-69
2023/11/17 05:15:16;;;;;;;;;;;;;;;;;;5021115;28;20079;-69
2023/11/17 05:17:48;;;;;;;7.38;3.53;;;;;;;;;;5018726;28;19925;-69
2023/11/17 05:20:16;;;;;;;8.25;3.70;;;;;;;;;;5017392;28;20159;-69
2023/11/17 05:22:44;;;;;;;7.43;3.55;;;;;;;;;;5018060;28;20049;-69
2023/11/17 05:25:12;;;;;;;10.82;4.25;;;;;;;;;;5026103;28;20088;-68
2023/11/17 05:27:40;;;;;;;10.00;4.13;;;;;;;;;;5018302;28;20096;-69
2023/11/17 05:30:08;;;;;;;9.27;4.30;;;;;;;;;;5018305;28;20048;-70
2023/11/17 05:32:37;;;;;;;8.30;4.00;;;;;;;;;;5002461;28;20057;-69
2023/11/17 05:35:05;;;;;;;;;;;;;;;;;;5014659;28;20073;-69
2023/11/17 05:37:32;;;;;;;7.22;3.35;;;;;;;;;;5022049;28;19935;-69
2023/11/17 05:40:00;;;;;;;8.32;3.70;;;;;;;;;;5017132;28;20053;-69
2023/11/17 05:42:28;;;;;;;9.23;4.03;;;;;;;;;;5016432;28;20068;-69
2023/11/17 05:44:55;;;;;;;9.60;4.20;;;;;;;;;;4997136;28;20053;-69
2023/11/17 05:47:22;;;;;;;9.15;4.20;;;;;;;;;;5017789;28;20056;-70
2023/11/17 05:49:52;;;;;;;7.70;3.70;;;;;;;;;;5008649;28;20148;-69
2023/11/17 05:52:19;;;;;;;7.80;3.58;;;;;;;;;;4995978;28;20060;-69
2023/11/17 05:54:47;;;;;;;9.90;4.30;;;;;;;;;;5013140;28;20041;-69
2023/11/17 05:57:14;;;;;;;7.93;3.80;;;;;;;;;;5004036;28;20049;-69
2023/11/17 05:59:43;;;;;;;9.93;4.05;;;;;;;;;;5006700;28;20053;-67
2023/11/17 06:02:10;;;;;;;9.35;3.95;;;;;;;;;;4999057;28;20064;-70
2023/11/17 06:04:38;;;;;;;9.10;4.28;;;;;;;;;;5001737;28;20069;-69
2023/11/17 06:07:08;;;;;;;7.57;4.13;;;;;;;;;;5013258;28;20068;-69
2023/11/17 06:09:35;;;;;;;10.57;4.22;;;;;;;;;;5000826;28;20092;-69
2023/11/17 06:12:03;;;;;;;8.05;4.25;;;;;;;;;;5012283;28;20131;-70
2023/11/17 06:14:31;;;;;;;8.02;4.13;;;;;;;;;;5009641;28;20130;-69
2023/11/17 06:16:58;;;;;;;7.78;4.05;;;;;;;;;;5017705;28;20107;-68
2023/11/17 06:19:25;;;;;;;9.50;4.47;;;;;;;;;;5013771;28;20093;-69
2023/11/17 06:21:52;;;;;;;11.75;5.10;;;;;;;;;;5016509;28;20107;-69
2023/11/17 06:24:20;;;;;;;9.13;4.45;;;;;;;;;;5003442;28;20251;-69
2023/11/17 06:26:47;;;;;;;10.35;4.95;;;;;;;;;;5015753;28;20053;-69
2023/11/17 06:29:14;;;;;;;11.32;4.32;;;;;;;;;;5016936;28;20119;-69
2023/11/17 06:31:41;;;;;;;16.08;4.93;;;;;;;;;;5016598;28;20061;-69
2023/11/17 06:34:09;;;;;;;10.38;4.55;;;;;;;;;;5011236;28;20220;-70
2023/11/17 06:36:37;;;;;;;9.15;4.47;;;;;;;;;;5017463;28;20050;-69
2023/11/17 06:39:13;;;;;;;9.52;4.43;;;;;;;;;;5019476;28;20057;-69
2023/11/17 06:41:43;;;;;;;9.25;3.72;;;;;;;;;;5010999;28;20104;-69
2023/11/17 06:44:10;;;;;;;12.82;3.72;;;;;;;;;;5008649;28;20064;-69
2023/11/17 06:46:38;;;;;;;10.75;4.22;;;;;;;;;;5015042;28;20076;-68
2023/11/17 06:49:08;;;;;;;9.20;3.78;;;;;;;;;;5015855;28;20057;-69
2023/11/17 06:51:37;;;;;;;8.02;4.13;;;;;;;;;;5003235;28;20053;-69
2023/11/17 06:54:10;;;;;;;9.60;4.32;;;;;;;;;;4994665;28;20059;-70
2023/11/17 06:56:37;;;;;;;7.30;3.83;;;;;;;;;;4998555;28;20050;-69
2023/11/17 06:59:06;;;;;;;9.23;3.67;;;;;;;;;;4999049;28;20049;-68
2023/11/17 07:01:34;;;;;;;9.32;4.32;;;;;;;;;;5022725;28;20057;-69
2023/11/17 07:04:02;;;;;;;7.35;3.88;;;;;;;;;;5025469;28;20053;-69
2023/11/17 07:06:29;;;;;;;8.60;4.03;;;;;;;;;;5017114;28;20045;-67
2023/11/17 07:08:57;;;;;;;9.30;4.20;;;;;;;;;;4998642;28;20073;-69
2023/11/17 07:11:24;;;;;;;8.83;4.30;;;;;;;;;;5001996;28;20050;-69
2023/11/17 07:13:52;;;;;;;9.25;4.38;;;;;;;;;;5018467;28;20081;-69
2023/11/17 07:16:21;;;;;;;8.87;3.83;;;;;;;;;;5015646;28;20060;-69
2023/11/17 07:18:47;;;;;;;9.88;4.20;;;;;;;;;;5035365;28;20115;-69
2023/11/17 07:21:15;;;;;;;9.25;4.10;;;;;;;;;;5038246;28;20089;-70
2023/11/17 07:23:43;;;;;;;9.07;4.05;;;;;;;;;;5035091;28;20052;-69
2023/11/17 07:26:17;;;;;;;18.08;7.13;;;;;;;;;;5033928;28;20131;-69
2023/11/17 07:28:46;;;;;;;22.45;11.10;;;;;;;;;;5042570;28;20071;-70
2023/11/17 07:31:13;;;;;;;;;;;;;;;;;;5043678;28;20063;-69
2023/11/17 07:33:41;;;;;;;12.52;5.45;;;;;;;;;;5033034;28;19932;-69
2023/11/17 07:36:09;;;;;;;10.68;5.60;;;;;;;;;;5036553;28;20060;-70
2023/11/17 07:38:38;;;;;;;12.27;5.63;;;;;;;;;;5041025;28;20068;-70
2023/11/17 07:41:05;;;;;;;11.52;4.72;;;;;;;;;;5040869;28;20063;-69
2023/11/17 07:43:32;;;;;;;11.23;4.90;;;;;;;;;;5050943;28;20056;-69
2023/11/17 07:46:00;;;;;;;12.50;4.90;;;;;;;;;;5020068;28;20065;-69
2023/11/17 07:48:27;;;;;;;27.38;11.98;;;;;;;;;;5018608;28;21533;-70
2023/11/17 07:50:55;;;;;;;28.63;11.60;;;;;;;;;;5022305;28;20063;-69
2023/11/17 07:53:22;;;;;;;33.95;14.40;;;;;;;;;;5022214;28;20068;-68
2023/11/17 07:55:53;;;;;;;17.53;8.80;;;;;;;;;;5027747;28;20284;-69
2023/11/17 07:58:20;;;;;;;16.30;6.72;;;;;;;;;;5034560;28;20053;-69
2023/11/17 08:00:48;;;;;;;12.32;5.18;;;;;;;;;;5040865;28;20053;-68
2023/11/17 08:03:15;;;;;;;10.23;4.28;;;;;;;;;;5030354;28;20069;-69
2023/11/17 08:05:42;;;;;;;11.32;5.28;;;;;;;;;;5000103;28;20049;-68
2023/11/17 08:08:10;;;;;;;30.88;12.82;;;;;;;;;;4996013;28;20176;-69
2023/11/17 08:10:37;;;;;;;23.63;11.77;;;;;;;;;;4983845;28;20062;-68
2023/11/17 08:13:05;;;;;;;17.63;7.53;;;;;;;;;;5015550;28;20057;-70
2023/11/17 08:15:32;;;;;;;12.05;6.32;;;;;;;;;;4993717;28;20057;-68
2023/11/17 08:18:01;;;;;;;9.75;4.57;;;;;;;;;;5001158;28;20072;-68
2023/11/17 08:20:31;;;;;;;12.27;5.28;;;;;;;;;;4982613;28;20053;-68
2023/11/17 08:22:58;;;;;;;11.43;5.25;;;;;;;;;;4985227;28;20046;-68
2023/11/17 08:25:27;;;;;;;12.43;5.03;;;;;;;;;;4991955;28;20053;-68
2023/11/17 08:27:54;;;;;;;8.57;4.32;;;;;;;;;;5018459;28;20056;-68
2023/11/17 08:30:21;;;;;;;11.13;5.05;;;;;;;;;;4994970;28;20081;-69
2023/11/17 08:32:50;;;;;;;15.45;5.20;;;;;;;;;;5001139;28;20077;-68
2023/11/17 08:35:21;;;;;;;9.98;4.70;;;;;;;;;;4982757;28;20058;-69
2023/11/17 08:37:52;;;;;;;10.05;5.18;;;;;;;;;;4984339;28;20054;-69
2023/11/17 08:40:19;;;;;;;14.88;5.65;;;;;;;;;;4976152;28;20165;-68
2023/11/17 08:42:48;;;;;;;10.68;4.88;;;;;;;;;;4982035;28;20054;-68
2023/11/17 08:45:15;;;;;;;11.18;5.45;;;;;;;;;;4987747;28;20061;-69
2023/11/17 08:47:44;;;;;;;11.35;5.40;;;;;;;;;;5002605;28;20058;-69
2023/11/17 08:50:12;;;;;;;13.60;5.53;;;;;;;;;;4995752;28;20070;-69
2023/11/17 08:52:40;;;;;;;20.80;9.38;;;;;;;;;;5002033;28;20132;-68
2023/11/17 08:55:09;;;;;;;14.38;6.57;;;;;;;;;;4995778;28;20089;-69
2023/11/17 08:57:36;;;;;;;39.65;16.95;;;;;;;;;;5001646;28;20062;-69
2023/11/17 09:00:14;;;;;;;32.88;14.20;;;;;;;;;;4991305;28;20053;-69
2023/11/17 09:02:41;;;;;;;17.15;8.05;;;;;;;;;;5016236;28;20050;-69
2023/11/17 09:05:09;;;;;;;14.48;7.22;;;;;;;;;;5027008;28;20069;-68
2023/11/17 09:07:40;;;;;;;16.20;6.88;;;;;;;;;;5038776;28;20055;-69
2023/11/17 09:10:08;;;;;;;15.48;6.70;;;;;;;;;;5031995;28;20052;-70
2023/11/17 09:12:36;;;;;;;14.20;6.82;;;;;;;;;;5033339;28;20096;-68
2023/11/17 09:15:08;;;;;;;14.63;6.88;;;;;;;;;;5019767;28;20067;-69
2023/11/17 09:17:40;;;;;;;16.98;7.45;;;;;;;;;;5025285;28;20085;-68
2023/11/17 09:20:09;;;;;;;13.52;6.22;;;;;;;;;;5011840;28;20075;-70
2023/11/17 09:22:39;;;;;;;15.02;7.50;;;;;;;;;;5026378;28;20045;-69
2023/11/17 09:25:13;;;;;;;15.45;7.40;;;;;;;;;;5014984;28;20067;-68
2023/11/17 09:27:40;;;;;;;13.50;6.82;;;;;;;;;;5037639;28;20478;-68
2023/11/17 09:30:12;;;;;;;12.20;5.95;;;;;;;;;;5033793;28;20053;-69
2023/11/17 09:32:40;;;;;;;15.70;6.35;;;;;;;;;;5033656;28;20126;-68
2023/11/17 09:35:13;;;;;;;12.98;6.38;;;;;;;;;;5020700;28;20057;-69
2023/11/17 09:37:50;;;;;;;14.15;6.60;;;;;;;;;;5022375;28;20254;-68
2023/11/17 09:40:20;;;;;;;13.18;6.15;;;;;;;;;;5020120;28;20116;-69
2023/11/17 09:42:50;;;;;;;19.38;7.07;;;;;;;;;;5022193;28;20065;-68
2023/11/17 09:45:21;;;;;;;14.77;7.22;;;;;;;;;;5019275;28;20138;-68
2023/11/17 09:47:51;;;;;;;20.00;6.70;;;;;;;;;;5024041;28;20052;-69
2023/11/17 09:50:19;;;;;;;16.88;6.57;;;;;;;;;;5040163;28;20057;-68
2023/11/17 09:52:47;;;;;;;12.75;5.78;;;;;;;;;;5042653;28;20048;-68
2023/11/17 09:55:16;;;;;;;14.33;6.37;;;;;;;;;;5027031;28;20053;-68
2023/11/17 09:57:46;;;;;;;13.40;6.22;;;;;;;;;;5036523;28;20295;-68
2023/11/17 10:00:20;;;;;;;16.65;6.93;;;;;;;;;;5032789;28;20059;-68
2023/11/17 10:02:54;;;;;;;12.82;6.32;;;;;;;;;;5038320;28;20156;-69
2023/11/17 10:05:23;;;;;;;11.95;6.25;;;;;;;;;;5033235;28;20056;-68
2023/11/17 10:07:51;;;;;;;15.75;6.30;;;;;;;;;;5036245;28;20056;-68
2023/11/17 10:10:20;;;;;;;12.02;5.75;;;;;;;;;;5037387;28;20048;-68
2023/11/17 10:12:49;;;;;;;14.02;6.10;;;;;;;;;;5020270;28;20068;-68
2023/11/17 10:15:18;;;;;;;12.77;6.63;;;;;;;;;;5025549;28;20543;-69
2023/11/17 10:17:48;;;;;;;12.35;6.65;;;;;;;;;;5029233;28;20080;-69
2023/11/17 10:20:18;;;;;;;15.30;7.38;;;;;;;;;;5035204;28;20049;-69
2023/11/17 10:22:49;;;;;;;15.45;7.20;;;;;;;;;;5023898;28;20142;-68
2023/11/17 10:25:19;;;;;;;17.38;7.70;;;;;;;;;;5031993;28;20049;-69
2023/11/17 10:27:51;;;;;;;16.13;7.50;;;;;;;;;;5054810;28;20041;-68
2023/11/17 10:30:19;;;;;;;18.65;7.22;;;;;;;;;;5034069;28;20060;-68
2023/11/17 10:32:57;;;;;;;;;;;;;;;;;;5022803;28;20053;-67
2023/11/17 10:35:25;;;;;;;13.98;6.15;;;;;;;;;;5025717;28;20015;-67
2023/11/17 10:37:55;;;;;;;12.50;7.05;;;;;;;;;;5039073;28;20053;-67
2023/11/17 10:40:25;;;;;;;15.32;7.07;;;;;;;;;;5034694;28;20134;-67
2023/11/17 10:43:04;;;;;;;12.43;6.32;;;;;;;;;;5020720;28;20088;-68
2023/11/17 10:45:32;;;;;;;16.02;7.15;;;;;;;;;;5014071;28;20334;-68
2023/11/17 10:48:00;;;;;;;15.18;7.53;;;;;;;;;;5038316;28;20162;-71
2023/11/17 10:50:29;;;;;;;14.50;7.00;;;;;;;;;;5016191;28;20045;-69
2023/11/17 10:52:56;;;;;;;;;;;;;;;;;;5036376;28;20100;-68
2023/11/17 10:55:39;;;;;;;14.03;6.53;;;;;;;;;;4996672;28;20075;-68
2023/11/17 10:58:08;;;;;;;21.20;8.55;;;;;;;;;;4996536;28;20072;-69
2023/11/17 11:00:38;;;;;;;22.58;9.80;;;;;;;;;;5022481;28;20115;-69
2023/11/17 11:03:07;;;;;;;23.52;10.18;;;;;;;;;;5014461;28;20207;-71
2023/11/17 11:05:37;;;;;;;24.10;10.95;;;;;;;;;;5034658;28;20068;-70
2023/11/17 11:08:11;;;;;;;19.58;8.52;;;;;;;;;;5056751;28;20135;-72
2023/11/17 11:10:38;;;;;;;22.58;10.13;;;;;;;;;;5044994;28;20061;-70
2023/11/17 11:13:05;;;;;;;22.35;9.77;;;;;;;;;;5037553;28;20053;-68
2023/11/17 11:15:33;;;;;;;17.95;7.10;;;;;;;;;;5031769;28;20048;-70
2023/11/17 11:18:06;;;;;;;13.90;6.72;;;;;;;;;;5036807;28;20067;-70
2023/11/17 11:20:33;;;;;;;12.70;6.18;;;;;;;;;;5039525;28;20136;-70
2023/11/17 11:23:03;;;;;;;10.82;4.95;;;;;;;;;;5039582;28;20122;-69
2023/11/17 11:25:31;;;;;;;12.15;4.72;;;;;;;;;;5031275;28;20060;-68
2023/11/17 11:28:03;;;;;;;8.23;3.47;;;;;;;;;;5034278;28;20064;-69
2023/11/17 11:30:36;;;;;;;6.82;3.20;;;;;;;;;;5038932;28;20067;-69
2023/11/17 11:33:03;;;;;;;11.80;3.25;;;;;;;;;;5035734;28;20057;-69
2023/11/17 11:35:30;;;;;;;6.13;2.85;;;;;;;;;;5031362;28;20061;-69
2023/11/17 11:37:57;;;;;;;10.27;3.38;;;;;;;;;;5038896;28;20049;-70
2023/11/17 11:40:26;;;;;;;6.55;3.20;;;;;;;;;;5039112;28;20154;-69
2023/11/17 11:42:53;;;;;;;8.18;3.38;;;;;;;;;;5035261;28;20056;-68
2023/11/17 11:45:24;;;;;;;6.65;3.00;;;;;;;;;;5031247;28;20060;-69
2023/11/17 11:47:57;;;;;;;7.65;3.03;;;;;;;;;;5043120;28;20059;-69
2023/11/17 11:50:24;;;;;;;7.32;3.40;;;;;;;;;;5036087;28;20084;-69
2023/11/17 11:53:24;;;;;;;8.93;3.78;;;;;;;;;;5036417;28;20045;-70
2023/11/17 11:55:54;;;;;;;11.38;3.38;;;;;;;;;;5016753;28;20123;-69
2023/11/17 11:58:23;;;;;;;9.75;3.53;;;;;;;;;;5014894;28;20065;-69
2023/11/17 12:00:54;;;;;;;7.95;3.25;;;;;;;;;;5026337;28;20133;-69
2023/11/17 12:03:25;;;;;;;7.60;3.50;;;;;;;;;;5016309;28;20061;-69
2023/11/17 12:05:54;;;;;;;8.70;4.10;;;;;;;;;;5031735;28;20060;-69
2023/11/17 12:08:23;;;;;;;8.93;3.63;;;;;;;;;;5036358;28;20132;-69
2023/11/17 12:10:55;;;;;;;8.18;4.03;;;;;;;;;;5039935;28;20504;-69
2023/11/17 12:13:43;;;;;;;9.70;3.80;;;;;;;;;;5025648;28;20046;-69
2023/11/17 12:16:12;;;;;;;7.25;3.42;;;;;;;;;;4997465;28;20144;-69
2023/11/17 12:18:42;;;;;;;7.32;3.22;;;;;;;;;;5019672;28;20076;-70
2023/11/17 12:21:20;;;;;;;8.10;3.85;;;;;;;;;;5021185;28;20064;-70
2023/11/17 12:23:49;;;;;;;9.65;3.75;;;;;;;;;;5018826;28;20067;-70
2023/11/17 12:26:20;;;;;;;8.57;3.55;;;;;;;;;;5017752;28;20049;-69
2023/11/17 12:28:49;;;;;;;10.70;4.13;;;;;;;;;;5021743;28;20065;-69
2023/11/17 12:31:18;;;;;;;8.80;3.80;;;;;;;;;;5020387;28;20057;-69
2023/11/17 12:33:48;;;;;;;7.88;3.38;;;;;;;;;;5007465;28;20050;-70
2023/11/17 12:36:17;;;;;;;11.88;3.97;;;;;;;;;;4998868;28;20060;-69
2023/11/17 12:38:45;;;;;;;7.82;3.72;;;;;;;;;;5021673;28;20049;-70
2023/11/17 12:41:13;;;;;;;7.78;3.55;;;;;;;;;;5020129;28;20204;-69
2023/11/17 12:43:46;;;;;;;9.00;4.22;;;;;;;;;;5025981;28;20065;-69
2023/11/17 12:46:13;;;;;;;11.10;3.45;;;;;;;;;;5011206;28;20053;-69
2023/11/17 12:48:40;;;;;;;9.10;3.40;;;;;;;;;;5023579;28;20061;-69
2023/11/17 12:51:07;;;;;;;12.13;3.90;;;;;;;;;;5018068;28;20049;-69
2023/11/17 12:53:40;;;;;;;7.72;3.88;;;;;;;;;;5019792;28;20064;-69
2023/11/17 12:56:08;;;;;;;8.98;3.90;;;;;;;;;;5027193;28;20052;-70
2023/11/17 12:58:35;;;;;;;9.00;3.55;;;;;;;;;;5041350;28;20084;-69
2023/11/17 13:01:16;;;;;;;11.00;3.38;;;;;;;;;;5041147;28;20057;-69
2023/11/17 13:03:44;;;;;;;8.85;3.85;;;;;;;;;;5020726;28;20076;-70
2023/11/17 13:06:11;;;;;;;7.27;3.30;;;;;;;;;;5011899;28;20076;-69
2023/11/17 13:08:38;;;;;;;9.05;4.07;;;;;;;;;;5023986;28;20310;-69
2023/11/17 13:11:10;;;;;;;7.10;3.88;;;;;;;;;;5022134;28;20063;-68
2023/11/17 13:13:39;;;;;;;9.45;3.75;;;;;;;;;;5020434;28;20053;-69
2023/11/17 13:16:09;;;;;;;8.60;3.63;;;;;;;;;;5010717;28;20156;-69
2023/11/17 13:18:39;;;;;;;12.60;3.88;;;;;;;;;;4995493;28;20053;-69
2023/11/17 13:21:07;;;;;;;8.50;3.50;;;;;;;;;;5005308;28;20057;-68
2023/11/17 13:23:35;;;;;;;11.15;3.90;;;;;;;;;;5021736;28;20061;-68
2023/11/17 13:26:07;;;;;;;9.40;3.25;;;;;;;;;;5030641;28;20160;-68
2023/11/17 13:28:41;;;;;;;7.47;2.75;;;;;;;;;;5042761;28;20067;-68
2023/11/17 13:31:19;;;;;;;5.70;2.50;;;;;;;;;;5042815;28;20510;-68
2023/11/17 13:33:50;;;;;;;7.35;2.95;;;;;;;;;;5041971;28;20054;-68
2023/11/17 13:36:21;;;;;;;5.10;2.42;;;;;;;;;;5015702;28;20041;-68
2023/11/17 13:38:58;;;;;;;8.73;2.78;;;;;;;;;;5040553;28;20071;-69
2023/11/17 13:41:27;;;;;;;7.07;3.03;;;;;;;;;;5021890;28;20052;-68
2023/11/17 13:43:56;;;;;;;;;;;;;;;;;;5017991;28;20096;-68
2023/11/17 13:46:24;;;;;;;10.57;2.72;;;;;;;;;;5027799;28;23403;-68
2023/11/17 13:49:01;;;;;;;7.95;3.00;;;;;;;;;;5021570;28;20053;-68
2023/11/17 13:51:31;;;;;;;7.80;2.88;;;;;;;;;;5022861;28;20053;-68
2023/11/17 13:53:58;;;;;;;6.25;3.15;;;;;;;;;;5027876;28;20059;-71
2023/11/17 13:56:26;;;;;;;6.38;3.25;;;;;;;;;;4993856;28;20058;-70
2023/11/17 13:58:53;;;;;;;8.63;3.10;;;;;;;;;;5001855;28;20135;-70
2023/11/17 14:01:21;;;;;;;6.90;2.80;;;;;;;;;;5006413;28;20081;-69
2023/11/17 14:03:50;;;;;;;5.85;2.22;;;;;;;;;;5020077;28;20061;-70
2023/11/17 14:06:18;;;;;;;;;;;;;;;;;;5006090;28;20049;-70
2023/11/17 14:08:49;;;;;;;5.63;2.45;;;;;;;;;;5020213;28;19962;-69
2023/11/17 14:11:16;;;;;;;;;;;;;;;;;;5020881;28;20140;-69
2023/11/17 14:13:43;;;;;;;6.55;2.95;;;;;;;;;;5017142;28;19925;-71
2023/11/17 14:16:11;;;;;;;9.52;3.28;;;;;;;;;;5009044;28;20064;-71
2023/11/17 14:18:41;;;;;;;7.27;2.67;;;;;;;;;;4998365;28;20054;-70
2023/11/17 14:21:11;;;;;;;9.75;2.63;;;;;;;;;;5005991;28;20297;-70
2023/11/17 14:23:39;;;;;;;6.47;2.83;;;;;;;;;;5002142;28;20076;-69
2023/11/17 14:26:08;;;;;;;18.25;2.92;;;;;;;;;;5011038;28;20088;-69
2023/11/17 14:28:36;;;;;;;;;;;;;;;;;;5037360;28;20171;-70
2023/11/17 14:31:04;;;;;;;7.43;2.67;;;;;;;;;;5038728;28;20018;-70
2023/11/17 14:33:32;;;;;;;7.35;3.17;;;;;;;;;;5040496;28;20053;-70
2023/11/17 14:35:59;;;;;;;9.80;3.08;;;;;;;;;;5014701;28;20345;-71
2023/11/17 14:38:28;;;;;;;9.25;2.85;;;;;;;;;;5029624;28;20053;-67
2023/11/17 14:40:57;;;;;;;8.38;3.92;;;;;;;;;;5017040;28;20061;-68
2023/11/17 14:43:24;;;;;;;15.52;4.95;;;;;;;;;;5007506;28;20058;-66
2023/11/17 14:45:51;;;;;;;18.80;7.18;;;;;;;;;;5013896;28;20064;-69
2023/11/17 14:48:18;;;;;;;10.05;3.83;;;;;;;;;;5012251;28;20144;-68
2023/11/17 14:50:45;;;;;;;9.90;3.17;;;;;;;;;;5018222;28;20064;-68
2023/11/17 14:53:12;;;;;;;8.55;3.35;;;;;;;;;;5021909;28;20063;-69